createdAt,value
2023-02-27T00:01:59.789Z,3.53
2023-02-27T00:04:33.866Z,3.45
2023-02-27T00:07:07.796Z,3.53
2023-02-27T00:09:35.080Z,3.50
2023-02-27T00:12:08.943Z,3.15
2023-02-27T00:14:36.232Z,3.10
2023-02-27T00:17:03.449Z,2.85
2023-02-27T00:19:36.876Z,3.47
2023-02-27T00:22:04.065Z,2.65
2023-02-27T00:24:38.295Z,3.33
2023-02-27T00:27:05.547Z,3.05
2023-02-27T00:29:32.644Z,3.10
2023-02-27T00:32:06.971Z,3.35
2023-02-27T00:34:34.266Z,3.25
2023-02-27T00:37:07.919Z,3.13
2023-02-27T00:39:41.760Z,2.65
2023-02-27T00:42:15.909Z,2.47
2023-02-27T00:44:43.117Z,3.00
2023-02-27T00:47:10.292Z,3.20
2023-02-27T00:49:43.827Z,2.60
2023-02-27T00:52:11.090Z,2.80
2023-02-27T00:54:38.328Z,2.53
2023-02-27T00:57:11.804Z,2.30
2023-02-27T00:59:39.183Z,2.50
2023-02-27T01:02:12.994Z,2.78
2023-02-27T01:04:40.178Z,2.97
2023-02-27T01:07:07.278Z,2.83
2023-02-27T01:09:40.812Z,2.38
2023-02-27T01:12:08.074Z,2.30
2023-02-27T01:14:42.888Z,2.30
2023-02-27T01:17:10.146Z,2.78
2023-02-27T01:19:37.277Z,2.60
2023-02-27T01:22:11.061Z,2.80
2023-02-27T01:24:38.208Z,2.72
2023-02-27T01:27:05.314Z,3.08
2023-02-27T01:29:39.019Z,3.72
2023-02-27T01:32:06.393Z,4.15
2023-02-27T01:37:07.096Z,3.45
2023-02-27T01:39:48.020Z,2.88
2023-02-27T01:42:19.245Z,2.83
2023-02-27T01:45:25.937Z,2.40
2023-02-27T01:47:54.991Z,2.58
2023-02-27T01:50:22.920Z,2.55
2023-02-27T01:52:58.835Z,2.58
2023-02-27T01:55:27.053Z,2.70
2023-02-27T01:58:00.831Z,2.80
2023-02-27T02:00:28.049Z,2.70
2023-02-27T02:03:09.069Z,2.33
2023-02-27T02:05:36.434Z,2.33
2023-02-27T02:08:04.538Z,2.45
2023-02-27T02:10:38.858Z,2.75
2023-02-27T02:13:06.101Z,2.10
2023-02-27T02:15:42.939Z,2.53
2023-02-27T02:18:16.312Z,2.70
2023-02-27T02:20:50.037Z,2.35
2023-02-27T02:23:35.648Z,2.45
2023-02-27T02:26:09.908Z,2.80
2023-02-27T02:28:47.279Z,2.28
2023-02-27T02:31:38.147Z,1.92
2023-02-27T02:34:25.669Z,2.47
2023-02-27T02:37:03.007Z,2.63
2023-02-27T02:39:49.758Z,2.03
2023-02-27T02:42:32.897Z,2.58
2023-02-27T02:45:18.938Z,2.20
2023-02-27T02:47:58.943Z,2.45
2023-02-27T02:50:46.272Z,2.40
2023-02-27T02:53:31.107Z,3.03
2023-02-27T02:56:03.475Z,3.40
2023-02-27T02:59:00.880Z,2.92
2023-02-27T03:01:32.816Z,2.95
2023-02-27T03:04:11.071Z,2.70
2023-02-27T03:06:41.127Z,2.72
2023-02-27T03:09:19.836Z,2.83
2023-02-27T03:11:49.864Z,3.25
2023-02-27T03:14:38.942Z,2.47
2023-02-27T03:17:11.189Z,2.60
2023-02-27T03:19:48.918Z,2.20
2023-02-27T03:22:17.938Z,3.50
2023-02-27T03:24:58.005Z,3.08
2023-02-27T03:27:26.976Z,3.30
2023-02-27T03:29:57.514Z,2.35
2023-02-27T03:32:33.954Z,2.20
2023-02-27T03:35:07.745Z,2.15
2023-02-27T03:37:47.124Z,2.53
2023-02-27T03:40:32.764Z,2.30
2023-02-27T03:43:22.202Z,2.30
2023-02-27T03:46:05.805Z,2.05
2023-02-27T03:48:33.208Z,2.20
2023-02-27T03:51:06.895Z,2.38
2023-02-27T03:53:40.082Z,2.17
2023-02-27T03:56:15.703Z,2.50
2023-02-27T03:58:43.369Z,2.33
2023-02-27T04:01:16.793Z,2.13
2023-02-27T04:03:47.058Z,2.17
2023-02-27T04:06:39.885Z,2.40
2023-02-27T04:09:12.952Z,2.13
2023-02-27T04:12:05.923Z,2.85
2023-02-27T04:14:56.426Z,2.50
2023-02-27T04:17:41.773Z,2.70
2023-02-27T04:20:38.925Z,3.08
2023-02-27T04:23:15.754Z,2.72
2023-02-27T04:25:54.826Z,2.97
2023-02-27T04:28:42.163Z,2.40
2023-02-27T04:31:23.137Z,2.38
2023-02-27T04:33:52.666Z,2.35
2023-02-27T04:36:34.840Z,2.70
2023-02-27T04:39:18.012Z,2.38
2023-02-27T04:41:59.944Z,2.35
2023-02-27T04:44:28.010Z,2.30
2023-02-27T04:47:03.968Z,2.40
2023-02-27T04:49:36.697Z,2.42
2023-02-27T04:52:10.893Z,2.90
2023-02-27T04:54:46.974Z,2.58
2023-02-27T04:57:23.839Z,3.03
2023-02-27T04:59:52.478Z,2.55
2023-02-27T05:02:31.948Z,2.10
2023-02-27T05:05:01.221Z,2.60
2023-02-27T05:07:39.037Z,2.38
2023-02-27T05:10:07.480Z,2.30
2023-02-27T05:12:56.849Z,3.08
2023-02-27T05:15:45.929Z,2.60
2023-02-27T05:18:21.859Z,2.45
2023-02-27T05:21:14.420Z,2.50
2023-02-27T05:23:47.957Z,1.92
2023-02-27T05:26:20.994Z,3.00
2023-02-27T05:28:59.008Z,2.78
2023-02-27T05:31:38.273Z,2.75
2023-02-27T05:34:21.055Z,2.70
2023-02-27T05:36:50.988Z,2.65
2023-02-27T05:39:40.861Z,2.50
2023-02-27T05:42:14.280Z,3.08
2023-02-27T05:44:51.833Z,2.50
2023-02-27T05:47:20.998Z,1.90
2023-02-27T05:49:58.915Z,2.50
2023-02-27T05:52:26.819Z,2.35
2023-02-27T05:55:12.896Z,3.15
2023-02-27T05:57:42.891Z,2.40
2023-02-27T06:00:21.870Z,2.60
2023-02-27T06:02:49.027Z,2.40
2023-02-27T06:05:16.743Z,2.35
2023-02-27T06:07:50.843Z,2.58
2023-02-27T06:10:19.436Z,2.85
2023-02-27T06:12:52.873Z,2.47
2023-02-27T06:15:20.145Z,2.80
2023-02-27T06:17:47.270Z,2.90
2023-02-27T06:20:20.878Z,2.20
2023-02-27T06:22:48.166Z,2.47
2023-02-27T06:25:22.077Z,2.30
2023-02-27T06:27:49.467Z,2.63
2023-02-27T06:30:16.822Z,2.60
2023-02-27T06:32:50.843Z,2.40
2023-02-27T06:35:18.139Z,2.50
2023-02-27T06:37:52.019Z,2.58
2023-02-27T06:40:25.983Z,2.30
2023-02-27T06:42:59.912Z,2.30
2023-02-27T06:45:27.043Z,2.17
2023-02-27T06:47:54.232Z,2.85
2023-02-27T06:50:27.843Z,2.50
2023-02-27T06:52:55.038Z,2.63
2023-02-27T06:55:29.095Z,2.55
2023-02-27T06:57:56.218Z,2.60
2023-02-27T07:00:23.821Z,2.47
2023-02-27T07:02:57.904Z,2.55
2023-02-27T07:05:25.374Z,2.33
2023-02-27T07:07:59.935Z,2.40
2023-02-27T07:10:27.129Z,2.20
2023-02-27T07:12:55.136Z,2.13
2023-02-27T07:15:28.865Z,2.67
2023-02-27T07:17:56.090Z,2.13
2023-02-27T07:20:30.028Z,2.30
2023-02-27T07:22:57.349Z,2.47
2023-02-27T07:25:24.502Z,2.40
2023-02-27T07:27:57.967Z,2.20
2023-02-27T07:30:25.226Z,2.50
2023-02-27T07:32:58.958Z,2.58
2023-02-27T07:35:26.193Z,2.40
2023-02-27T07:37:53.386Z,2.17
2023-02-27T07:40:33.935Z,2.17
2023-02-27T07:43:01.112Z,2.00
2023-02-27T07:45:35.071Z,2.00
2023-02-27T07:48:08.871Z,2.35
2023-02-27T07:50:49.120Z,2.30
2023-02-27T07:53:16.394Z,2.78
2023-02-27T07:55:43.472Z,2.10
2023-02-27T07:58:16.904Z,2.08
2023-02-27T08:00:44.085Z,2.20
2023-02-27T08:03:18.015Z,2.10
2023-02-27T08:05:45.281Z,2.33
2023-02-27T08:08:12.449Z,2.45
2023-02-27T08:10:45.950Z,2.22
2023-02-27T08:13:14.094Z,1.88
2023-02-27T08:15:47.953Z,2.13
2023-02-27T08:18:15.232Z,2.53
2023-02-27T08:20:42.340Z,2.22
2023-02-27T08:23:16.057Z,2.45
2023-02-27T08:25:43.233Z,2.45
2023-02-27T08:28:17.061Z,2.17
2023-02-27T08:30:44.308Z,2.00
2023-02-27T08:33:11.483Z,2.20
2023-02-27T08:35:44.916Z,2.20
2023-02-27T08:38:12.084Z,1.85
2023-02-27T08:40:46.181Z,2.17
2023-02-27T08:43:13.359Z,2.10
2023-02-27T08:45:40.619Z,2.13
2023-02-27T08:48:14.876Z,2.75
2023-02-27T08:50:45.614Z,2.30
2023-02-27T08:53:20.118Z,2.47
2023-02-27T08:55:51.280Z,2.47
2023-02-27T08:58:18.664Z,2.22
2023-02-27T09:00:52.939Z,2.42
2023-02-27T09:03:21.443Z,2.20
2023-02-27T09:05:56.033Z,2.40
2023-02-27T09:08:23.416Z,2.47
2023-02-27T09:10:50.640Z,2.60
2023-02-27T09:13:23.912Z,6.90
2023-02-27T09:15:51.171Z,3.38
2023-02-27T09:18:25.023Z,5.60
2023-02-27T09:20:52.329Z,5.50
2023-02-27T09:23:19.789Z,6.35
2023-02-27T09:25:53.933Z,7.63
2023-02-27T09:28:21.471Z,4.43
2023-02-27T09:33:22.247Z,3.63
2023-02-27T09:35:49.410Z,3.70
2023-02-27T09:38:22.893Z,3.70
2023-02-27T09:40:59.498Z,3.05
2023-02-27T09:43:57.332Z,3.38
2023-02-27T09:46:25.650Z,3.90
2023-02-27T09:49:01.140Z,4.32
2023-02-27T09:51:28.831Z,4.05
2023-02-27T09:53:57.954Z,4.78
2023-02-27T09:56:32.028Z,4.63
2023-02-27T09:59:18.021Z,4.38
2023-02-27T10:02:12.931Z,4.32
2023-02-27T10:05:00.337Z,4.85
2023-02-27T10:07:43.920Z,4.35
2023-02-27T10:10:21.417Z,3.78
2023-02-27T10:13:16.152Z,3.38
2023-02-27T10:15:47.021Z,3.70
2023-02-27T10:18:31.095Z,3.45
2023-02-27T10:21:03.521Z,3.67
2023-02-27T10:23:48.025Z,4.10
2023-02-27T10:26:19.793Z,3.42
2023-02-27T10:28:53.923Z,4.18
2023-02-27T10:31:23.869Z,4.03
2023-02-27T10:33:58.039Z,3.92
2023-02-27T10:36:33.597Z,4.18
2023-02-27T10:39:13.933Z,4.30
2023-02-27T10:41:47.915Z,3.42
2023-02-27T10:44:31.183Z,2.90
2023-02-27T10:46:58.380Z,3.08
2023-02-27T10:49:25.597Z,3.17
2023-02-27T10:52:18.068Z,2.97
2023-02-27T10:54:45.672Z,2.45
2023-02-27T10:59:51.739Z,2.60
2023-02-27T11:02:27.142Z,2.50
2023-02-27T11:04:55.098Z,2.58
2023-02-27T11:07:36.923Z,2.15
2023-02-27T11:10:04.279Z,2.15
2023-02-27T11:12:33.694Z,1.83
2023-02-27T11:15:27.981Z,1.83
2023-02-27T11:18:01.862Z,1.88
2023-02-27T11:20:37.867Z,1.58
2023-02-27T11:23:12.860Z,1.90
2023-02-27T11:25:40.107Z,1.75
2023-02-27T11:28:19.871Z,1.70
2023-02-27T11:30:56.218Z,1.38
2023-02-27T11:33:29.844Z,1.95
2023-02-27T11:35:58.328Z,1.52
2023-02-27T11:38:33.853Z,1.65
2023-02-27T11:41:22.935Z,1.33
2023-02-27T11:43:57.895Z,1.40
2023-02-27T11:46:47.050Z,1.10
2023-02-27T11:49:39.005Z,1.08
2023-02-27T11:52:09.504Z,1.40
2023-02-27T11:55:05.846Z,0.90
2023-02-27T11:57:39.007Z,0.98
2023-02-27T12:00:30.886Z,0.77
2023-02-27T12:03:07.599Z,0.73
2023-02-27T12:05:59.905Z,0.63
2023-02-27T12:08:46.176Z,0.73
2023-02-27T12:11:33.925Z,0.60
2023-02-27T12:14:04.483Z,0.63
2023-02-27T12:16:58.116Z,0.57
2023-02-27T12:19:37.867Z,0.60
2023-02-27T12:22:12.933Z,0.60
2023-02-27T12:24:42.918Z,0.70
2023-02-27T12:27:22.961Z,0.93
2023-02-27T12:30:02.044Z,0.80
2023-02-27T12:32:35.122Z,0.55
2023-02-27T12:35:14.969Z,0.60
2023-02-27T12:37:42.098Z,0.90
2023-02-27T12:40:21.387Z,0.60
2023-02-27T12:43:01.739Z,1.05
2023-02-27T12:45:54.059Z,0.90
2023-02-27T12:48:47.891Z,0.93
2023-02-27T12:51:30.977Z,0.82
2023-02-27T12:54:16.905Z,0.90
2023-02-27T12:56:53.993Z,0.90
2023-02-27T12:59:31.442Z,1.05
2023-02-27T13:02:12.180Z,1.05
2023-02-27T13:04:46.768Z,0.88
2023-02-27T13:07:35.992Z,0.95
2023-02-27T13:10:05.939Z,0.95
2023-02-27T13:12:56.018Z,1.10
2023-02-27T13:15:27.114Z,1.30
2023-02-27T13:18:04.558Z,1.55
2023-02-27T13:20:40.873Z,1.00
2023-02-27T13:23:33.174Z,1.50
2023-02-27T13:26:02.016Z,1.60
2023-02-27T13:28:30.019Z,1.20
2023-02-27T13:31:07.976Z,1.05
2023-02-27T13:33:39.026Z,1.50
2023-02-27T13:36:27.958Z,1.52
2023-02-27T13:38:55.900Z,0.82
2023-02-27T13:41:42.058Z,1.13
2023-02-27T13:44:21.455Z,1.00
2023-02-27T13:46:54.985Z,1.80
2023-02-27T13:49:29.118Z,1.27
2023-02-27T13:52:06.000Z,0.70
2023-02-27T13:54:34.142Z,0.50
2023-02-27T13:57:04.286Z,0.82
2023-02-27T13:59:38.998Z,0.70
2023-02-27T14:02:19.916Z,0.60
2023-02-27T14:05:03.067Z,0.55
2023-02-27T14:07:38.893Z,1.05
2023-02-27T14:10:11.123Z,1.80
2023-02-27T14:12:46.973Z,2.13
2023-02-27T14:15:23.934Z,3.38
2023-02-27T14:18:11.414Z,1.92
2023-02-27T14:20:41.366Z,6.07
2023-02-27T14:23:28.924Z,10.68
2023-02-27T14:26:02.888Z,4.85
2023-02-27T14:28:39.024Z,1.95
2023-02-27T14:31:07.974Z,1.30
2023-02-27T14:33:40.651Z,3.17
2023-02-27T14:36:28.082Z,2.92
2023-02-27T14:39:03.908Z,0.60
2023-02-27T14:41:51.053Z,1.30
2023-02-27T14:44:35.918Z,0.65
2023-02-27T14:47:03.890Z,0.30
2023-02-27T14:49:38.936Z,0.68
2023-02-27T14:52:13.750Z,0.65
2023-02-27T14:54:47.963Z,1.00
2023-02-27T14:57:19.908Z,1.85
2023-02-27T14:59:54.974Z,5.53
2023-02-27T15:02:26.628Z,4.13
2023-02-27T15:05:03.062Z,5.43
2023-02-27T15:07:31.718Z,4.15
2023-02-27T15:10:01.625Z,3.17
2023-02-27T15:12:37.374Z,3.53
2023-02-27T15:15:06.040Z,4.38
2023-02-27T15:17:50.016Z,3.50
2023-02-27T15:20:23.016Z,2.83
2023-02-27T15:22:57.106Z,2.80
2023-02-27T15:25:27.947Z,2.83
2023-02-27T15:28:04.070Z,3.20
2023-02-27T15:30:31.574Z,2.33
2023-02-27T15:35:58.120Z,1.20
2023-02-27T15:41:07.233Z,0.80
2023-02-27T15:43:41.158Z,0.80
2023-02-27T15:46:15.265Z,0.50
2023-02-27T15:48:42.417Z,0.50
2023-02-27T15:51:09.879Z,0.50
2023-02-27T15:53:44.239Z,0.63
2023-02-27T15:56:12.889Z,0.55
2023-02-27T15:58:55.211Z,0.40
2023-02-27T16:01:23.766Z,0.50
2023-02-27T16:03:53.187Z,0.55
2023-02-27T16:06:30.393Z,0.77
2023-02-27T16:08:59.359Z,0.40
2023-02-27T16:11:35.127Z,0.80
2023-02-27T16:14:02.589Z,0.80
2023-02-27T16:16:42.036Z,0.95
2023-02-27T16:19:17.028Z,1.17
2023-02-27T16:22:09.126Z,1.17
2023-02-27T16:24:36.283Z,0.80
2023-02-27T16:27:10.118Z,1.00
2023-02-27T16:29:40.571Z,0.70
2023-02-27T16:32:27.071Z,0.82
2023-02-27T16:35:02.186Z,1.02
2023-02-27T16:37:43.966Z,1.40
2023-02-27T16:40:33.197Z,1.00
2023-02-27T16:43:08.096Z,1.25
2023-02-27T16:45:35.567Z,1.10
2023-02-27T16:50:47.053Z,0.80
2023-02-27T16:53:14.464Z,0.80
2023-02-27T16:55:50.015Z,0.65
2023-02-27T16:58:17.260Z,1.30
2023-02-27T17:00:51.060Z,1.10
2023-02-27T17:03:18.312Z,1.15
2023-02-27T17:05:52.319Z,1.10
2023-02-27T17:08:19.528Z,1.00
2023-02-27T17:10:46.768Z,0.80
2023-02-27T17:13:21.072Z,1.02
2023-02-27T17:15:48.389Z,0.88
2023-02-27T17:18:22.120Z,1.25
2023-02-27T17:20:51.114Z,1.10
2023-02-27T17:23:18.439Z,1.10
2023-02-27T17:25:52.164Z,1.20
2023-02-27T17:28:19.561Z,1.15
2023-02-27T17:30:53.198Z,1.38
2023-02-27T17:33:20.413Z,1.30
2023-02-27T17:35:47.512Z,1.25
2023-02-27T17:38:21.146Z,1.40
2023-02-27T17:41:07.982Z,1.38
2023-02-27T17:43:42.170Z,1.25
2023-02-27T17:46:10.156Z,1.10
2023-02-27T17:48:38.235Z,0.93
2023-02-27T17:51:16.186Z,1.20
2023-02-27T17:53:43.369Z,1.20
2023-02-27T17:56:10.822Z,1.05
2023-02-27T17:58:45.152Z,0.77
2023-02-27T18:01:13.441Z,1.40
2023-02-27T18:03:48.064Z,1.77
2023-02-27T18:06:15.386Z,2.28
2023-02-27T18:08:42.942Z,1.65
2023-02-27T18:13:44.238Z,1.92
2023-02-27T18:16:11.716Z,1.60
2023-02-27T18:21:23.139Z,1.40
2023-02-27T18:23:58.287Z,1.40
2023-02-27T18:26:32.933Z,1.23
2023-02-27T18:29:15.190Z,1.67
2023-02-27T18:31:54.042Z,1.50
2023-02-27T18:34:28.299Z,1.33
2023-02-27T18:36:58.062Z,1.60
2023-02-27T18:39:25.396Z,1.40
2023-02-27T18:41:59.140Z,1.50
2023-02-27T18:44:26.275Z,1.45
2023-02-27T18:47:00.252Z,1.13
2023-02-27T18:49:27.440Z,1.10
2023-02-27T18:51:54.612Z,1.10
2023-02-27T18:54:28.087Z,1.33
2023-02-27T18:56:55.314Z,1.58
2023-02-27T18:59:29.024Z,1.40
2023-02-27T19:01:57.550Z,1.60
2023-02-27T19:04:25.577Z,1.60
2023-02-27T19:06:59.190Z,2.00
2023-02-27T19:09:32.921Z,1.80
2023-02-27T19:12:15.496Z,1.60
2023-02-27T19:14:56.190Z,1.60
2023-02-27T19:17:25.991Z,1.50
2023-02-27T19:19:53.975Z,1.60
2023-02-27T19:22:28.104Z,1.50
2023-02-27T19:24:55.308Z,2.40
2023-02-27T19:27:22.390Z,2.63
2023-02-27T19:29:56.135Z,2.28
2023-02-27T19:32:23.470Z,2.70
2023-02-27T19:34:57.115Z,2.67
2023-02-27T19:37:24.444Z,2.75
2023-02-27T19:39:58.125Z,2.78
2023-02-27T19:42:32.054Z,2.17
2023-02-27T19:45:13.073Z,2.28
2023-02-27T19:47:47.067Z,1.77
2023-02-27T19:50:14.356Z,2.17
2023-02-27T19:52:41.514Z,2.30
2023-02-27T19:55:15.018Z,1.40
2023-02-27T19:57:42.640Z,2.05
2023-02-27T20:00:19.172Z,3.00
2023-02-27T20:02:46.765Z,2.90
2023-02-27T20:05:14.072Z,2.10
2023-02-27T20:07:49.114Z,2.00
2023-02-27T20:10:16.383Z,2.17
2023-02-27T20:12:50.397Z,1.80
2023-02-27T20:15:17.669Z,2.08
2023-02-27T20:17:44.790Z,2.47
2023-02-27T20:20:19.060Z,2.35
2023-02-27T20:22:46.322Z,2.10
2023-02-27T20:25:20.229Z,1.85
2023-02-27T20:27:47.405Z,2.20
2023-02-27T20:30:14.598Z,2.38
2023-02-27T20:32:48.073Z,3.00
2023-02-27T20:35:15.527Z,2.80
2023-02-27T20:40:17.179Z,2.55
2023-02-27T20:42:58.128Z,2.60
2023-02-27T20:45:25.366Z,2.58
2023-02-27T20:47:52.454Z,2.50
2023-02-27T20:50:26.150Z,2.55
2023-02-27T20:52:56.624Z,2.47
2023-02-27T20:55:30.121Z,2.13
2023-02-27T20:57:57.362Z,2.95
2023-02-27T21:00:33.142Z,3.03
2023-02-27T21:03:00.833Z,2.60
2023-02-27T21:05:34.204Z,2.40
2023-02-27T21:08:01.347Z,2.63
2023-02-27T21:10:28.459Z,2.30
2023-02-27T21:13:02.237Z,2.00
2023-02-27T21:15:31.155Z,1.90
2023-02-27T21:17:58.269Z,2.35
2023-02-27T21:20:32.263Z,2.17
2023-02-27T21:22:59.424Z,2.25
2023-02-27T21:25:34.276Z,2.30
2023-02-27T21:28:02.118Z,2.17
2023-02-27T21:30:37.222Z,2.30
2023-02-27T21:33:04.600Z,2.70
2023-02-27T21:35:38.195Z,2.03
2023-02-27T21:38:05.511Z,2.30
2023-02-27T21:40:32.680Z,2.20
2023-02-27T21:43:12.089Z,2.60
2023-02-27T21:45:43.959Z,2.75
2023-02-27T21:48:18.332Z,3.10
2023-02-27T21:50:45.519Z,2.90
2023-02-27T21:53:12.604Z,2.80
2023-02-27T21:55:46.095Z,2.90
2023-02-27T21:58:13.345Z,2.80
2023-02-27T22:00:47.050Z,3.22
2023-02-27T22:03:14.336Z,2.70
2023-02-27T22:05:41.851Z,2.60
2023-02-27T22:08:16.244Z,2.70
2023-02-27T22:10:45.823Z,2.40
2023-02-27T22:13:13.846Z,2.40
2023-02-27T22:15:48.178Z,2.47
2023-02-27T22:18:15.360Z,2.78
2023-02-27T22:20:49.151Z,2.22
2023-02-27T22:23:16.397Z,3.03
2023-02-27T22:25:43.576Z,3.00
2023-02-27T22:28:17.122Z,2.78
2023-02-27T22:30:45.813Z,2.58
2023-02-27T22:33:19.102Z,2.42
2023-02-27T22:35:46.291Z,2.70
2023-02-27T22:38:20.128Z,2.55
2023-02-27T22:40:54.266Z,2.40
2023-02-27T22:43:35.172Z,2.60
2023-02-27T22:46:02.914Z,2.47
2023-02-27T22:48:30.001Z,2.83
2023-02-27T22:51:14.118Z,2.85
2023-02-27T22:53:42.483Z,2.70
2023-02-27T22:56:17.346Z,2.40
2023-02-27T22:58:46.032Z,3.35
2023-02-27T23:01:13.088Z,2.80
2023-02-27T23:03:47.180Z,2.70
2023-02-27T23:06:18.796Z,3.03
2023-02-27T23:08:52.108Z,2.65
2023-02-27T23:11:19.832Z,3.03
2023-02-27T23:13:53.074Z,3.03
2023-02-27T23:16:20.812Z,3.00
2023-02-27T23:18:50.470Z,2.75
2023-02-27T23:21:25.101Z,2.60
2023-02-27T23:23:53.834Z,3.15
2023-02-27T23:26:28.263Z,2.80
2023-02-27T23:28:55.997Z,3.10
2023-02-27T23:31:23.223Z,2.60
2023-02-27T23:33:57.092Z,2.83
2023-02-27T23:36:24.293Z,3.00
2023-02-27T23:38:59.233Z,3.25
2023-02-27T23:41:33.233Z,3.20
2023-02-27T23:44:13.205Z,2.90
2023-02-27T23:46:40.787Z,2.95
2023-02-27T23:49:08.770Z,3.00
2023-02-27T23:51:42.096Z,2.83
2023-02-27T23:54:10.497Z,2.97
2023-02-27T23:56:44.145Z,3.30
2023-02-27T23:59:11.387Z,3.03
